Time;durP1;ratioP1;P1;durP2;ratioP2;P2;SDS_P1;SDS_P2;PMS_P1;PMS_P2;Temp;Humidity;BMP_temperature;BMP_pressure;BME280_temperature;BME280_humidity;BME280_pressure;Samples;Min_cycle;Max_cycle;Signal;HPM_P1;HPM_P2
2022/06/20 00:01:09;;;;;;;2.35;0.60;;;;;;;;;;2092404;28;20041;-82
2022/06/20 00:02:28;;;;;;;1.55;0.57;;;;;;;;;;2091456;28;20036;-79
2022/06/20 00:03:48;;;;;;;4.78;0.60;;;;;;;;;;2089990;28;20416;-81
2022/06/20 00:05:07;;;;;;;1.73;0.80;;;;;;;;;;2088962;28;20044;-80
2022/06/20 00:06:26;;;;;;;2.55;0.63;;;;;;;;;;2100808;28;20106;-81
2022/06/20 00:07:45;;;;;;;2.35;0.90;;;;;;;;;;2087769;28;20024;-81
2022/06/20 00:09:04;;;;;;;3.22;0.73;;;;;;;;;;2093780;28;20512;-81
2022/06/20 00:10:24;;;;;;;4.10;1.40;;;;;;;;;;2090414;28;20478;-81
2022/06/20 00:11:47;;;;;;;6.90;2.20;;;;;;;;;;2090308;28;20033;-82
2022/06/20 00:13:09;;;;;;;4.85;2.92;;;;;;;;;;2091385;28;20057;-82
2022/06/20 00:14:28;;;;;;;6.50;3.60;;;;;;;;;;2089118;28;20594;-82
2022/06/20 00:15:48;;;;;;;12.50;4.32;;;;;;;;;;2090688;28;20041;-81
2022/06/20 00:17:11;;;;;;;9.20;4.25;;;;;;;;;;2089445;28;20038;-81
2022/06/20 00:18:31;;;;;;;17.20;7.18;;;;;;;;;;2089430;28;20521;-81
2022/06/20 00:19:50;;;;;;;12.07;5.53;;;;;;;;;;2087859;28;20041;-81
2022/06/20 00:21:17;;;;;;;8.60;5.55;;;;;;;;;;2090732;28;20037;-81
2022/06/20 00:22:36;;;;;;;6.68;4.40;;;;;;;;;;2092700;28;20024;-81
2022/06/20 00:23:55;;;;;;;11.57;4.95;;;;;;;;;;2089920;28;20037;-81
2022/06/20 00:25:16;;;;;;;8.15;4.15;;;;;;;;;;2090536;28;20464;-80
2022/06/20 00:26:35;;;;;;;9.82;4.57;;;;;;;;;;2090629;28;20037;-81
2022/06/20 00:27:54;;;;;;;4.40;2.83;;;;;;;;;;2090590;28;20037;-80
2022/06/20 00:29:13;;;;;;;6.60;2.47;;;;;;;;;;2091900;28;20060;-81
2022/06/20 00:30:34;;;;;;;4.38;3.00;;;;;;;;;;2089284;28;20036;-82
2022/06/20 00:31:53;;;;;;;3.55;2.25;;;;;;;;;;2092121;28;20036;-81
2022/06/20 00:33:12;;;;;;;5.03;2.53;;;;;;;;;;2092477;28;20025;-82
2022/06/20 00:34:31;;;;;;;7.22;3.17;;;;;;;;;;2089200;28;20025;-81
2022/06/20 00:35:50;;;;;;;4.53;1.63;;;;;;;;;;2092789;28;20486;-78
2022/06/20 00:37:14;;;;;;;3.85;2.17;;;;;;;;;;2092833;28;20032;-80
2022/06/20 00:38:35;;;;;;;4.95;2.40;;;;;;;;;;2091223;28;20029;-81
2022/06/20 00:39:54;;;;;;;2.42;1.42;;;;;;;;;;2089831;28;20025;-81
2022/06/20 00:41:17;;;;;;;4.00;2.10;;;;;;;;;;2089522;28;20029;-82
2022/06/20 00:42:36;;;;;;;3.25;1.40;;;;;;;;;;2086975;28;20541;-81
2022/06/20 00:43:55;;;;;;;3.38;1.60;;;;;;;;;;2091984;28;20032;-81
2022/06/20 00:45:15;;;;;;;3.67;2.20;;;;;;;;;;2089515;28;20044;-82
2022/06/20 00:46:36;;;;;;;4.22;2.08;;;;;;;;;;2090909;28;20032;-82
2022/06/20 00:47:58;;;;;;;4.55;1.88;;;;;;;;;;2092390;28;20032;-82
2022/06/20 00:49:19;;;;;;;4.55;1.73;;;;;;;;;;2091849;28;20025;-82
2022/06/20 00:50:38;;;;;;;3.55;1.40;;;;;;;;;;2093516;28;20040;-82
2022/06/20 00:52:04;;;;;;;4.55;2.35;;;;;;;;;;2092830;28;20429;-81
2022/06/20 00:53:27;;;;;;;3.05;1.50;;;;;;;;;;2094127;28;20025;-81
2022/06/20 00:54:54;;;;;;;2.30;1.42;;;;;;;;;;2091334;28;20451;-81
2022/06/20 00:56:16;;;;;;;2.78;1.80;;;;;;;;;;2091020;28;20020;-81
2022/06/20 00:57:36;;;;;;;;;;;;;;;;;;2093803;28;20077;-81
2022/06/20 00:58:58;;;;;;;6.30;1.50;;;;;;;;;;2091856;28;19904;-82
2022/06/20 01:00:22;;;;;;;4.53;1.20;;;;;;;;;;2095530;28;20044;-81
2022/06/20 01:01:41;;;;;;;2.58;1.15;;;;;;;;;;2093866;28;20029;-81
2022/06/20 01:03:11;;;;;;;2.58;1.75;;;;;;;;;;2094139;28;20390;-81
2022/06/20 01:04:45;;;;;;;3.60;1.25;;;;;;;;;;2092344;28;20029;-80
2022/06/20 01:06:04;;;;;;;2.17;1.23;;;;;;;;;;2096465;28;20038;-77
2022/06/20 01:07:25;;;;;;;2.75;0.98;;;;;;;;;;2094879;28;20025;-82
2022/06/20 01:08:46;;;;;;;4.20;1.60;;;;;;;;;;2091733;28;20064;-81
2022/06/20 01:10:05;;;;;;;2.22;1.00;;;;;;;;;;2092323;28;20033;-82
2022/06/20 01:11:26;;;;;;;3.42;1.10;;;;;;;;;;2096236;28;20493;-81
2022/06/20 01:12:49;;;;;;;3.80;1.30;;;;;;;;;;2093841;28;20029;-77
2022/06/20 01:14:38;;;;;;;1.98;1.15;;;;;;;;;;2093754;28;20029;-82
2022/06/20 01:16:20;;;;;;;2.70;1.17;;;;;;;;;;2090156;28;20032;-83
2022/06/20 01:17:39;;;;;;;5.00;1.77;;;;;;;;;;2099120;28;20032;-82
2022/06/20 01:19:00;;;;;;;4.03;1.00;;;;;;;;;;2096336;28;20016;-82
2022/06/20 01:20:22;;;;;;;4.57;0.80;;;;;;;;;;2091765;28;20025;-83
2022/06/20 01:21:41;;;;;;;3.28;1.20;;;;;;;;;;2092766;28;20032;-83
2022/06/20 01:23:04;;;;;;;3.10;0.90;;;;;;;;;;2093072;28;20041;-82
2022/06/20 01:24:29;;;;;;;2.20;0.80;;;;;;;;;;2093322;28;20399;-82
2022/06/20 01:25:48;;;;;;;3.63;0.70;;;;;;;;;;2089792;28;20045;-82
2022/06/20 01:27:26;;;;;;;6.30;0.90;;;;;;;;;;2088472;28;20507;-81
2022/06/20 01:28:47;;;;;;;5.25;0.80;;;;;;;;;;2091734;28;20032;-82
2022/06/20 01:30:06;;;;;;;2.22;0.80;;;;;;;;;;2092804;28;20021;-82
2022/06/20 01:31:26;;;;;;;1.27;0.80;;;;;;;;;;2095267;28;20041;-81
2022/06/20 01:32:45;;;;;;;2.13;0.60;;;;;;;;;;2092616;28;20025;-82
2022/06/20 01:34:04;;;;;;;3.33;0.93;;;;;;;;;;2093010;28;20033;-82
2022/06/20 01:38:45;;;;;;;2.53;0.85;;;;;;;;;;2093172;28;20474;-82
2022/06/20 01:40:05;;;;;;;3.70;0.90;;;;;;;;;;2091685;28;20124;-83
2022/06/20 01:43:03;;;;;;;2.33;1.15;;;;;;;;;;2093247;28;20037;-78
2022/06/20 01:44:23;;;;;;;4.90;0.95;;;;;;;;;;2093632;28;20036;-82
2022/06/20 01:45:57;;;;;;;2.47;0.77;;;;;;;;;;2090379;28;20029;-82
2022/06/20 01:47:16;;;;;;;1.27;0.60;;;;;;;;;;2091070;28;20036;-82
2022/06/20 01:48:37;;;;;;;2.50;1.08;;;;;;;;;;2088782;28;20032;-82
2022/06/20 01:50:00;;;;;;;2.65;0.70;;;;;;;;;;2098273;28;20103;-83
2022/06/20 01:51:22;;;;;;;1.52;0.50;;;;;;;;;;2092945;28;20088;-82
2022/06/20 01:52:42;;;;;;;3.53;0.82;;;;;;;;;;2097150;28;20610;-78
2022/06/20 01:54:01;;;;;;;0.85;0.50;;;;;;;;;;2095418;28;20509;-80
2022/06/20 01:55:22;;;;;;;1.45;0.63;;;;;;;;;;2093534;28;21050;-82
2022/06/20 01:56:42;;;;;;;2.08;0.98;;;;;;;;;;2091874;28;20378;-82
2022/06/20 01:58:08;;;;;;;3.30;0.80;;;;;;;;;;2093971;28;20398;-81
2022/06/20 01:59:33;;;;;;;2.20;0.93;;;;;;;;;;2091561;28;20021;-82
2022/06/20 02:00:52;;;;;;;1.88;0.73;;;;;;;;;;2090870;28;20037;-79
2022/06/20 02:02:12;;;;;;;1.08;0.60;;;;;;;;;;2090011;28;20033;-82
2022/06/20 02:03:33;;;;;;;0.88;0.60;;;;;;;;;;2088982;28;20025;-83
2022/06/20 02:04:52;;;;;;;0.75;0.60;;;;;;;;;;2092343;28;20452;-82
2022/06/20 02:06:12;;;;;;;1.20;0.60;;;;;;;;;;2089210;28;20080;-82
2022/06/20 02:07:32;;;;;;;1.73;0.80;;;;;;;;;;2088968;28;20056;-82
2022/06/20 02:08:53;;;;;;;1.33;0.60;;;;;;;;;;2093990;28;20037;-82
2022/06/20 02:10:13;;;;;;;1.05;0.50;;;;;;;;;;2092081;28;20057;-82
2022/06/20 02:11:34;;;;;;;1.63;0.77;;;;;;;;;;2090113;28;20032;-81
2022/06/20 02:12:55;;;;;;;3.15;0.80;;;;;;;;;;2091709;28;20033;-83
2022/06/20 02:14:16;;;;;;;2.10;0.70;;;;;;;;;;2092544;28;20044;-82
2022/06/20 02:15:36;;;;;;;2.28;0.70;;;;;;;;;;2091231;28;20024;-83
2022/06/20 02:16:58;;;;;;;2.05;0.70;;;;;;;;;;2090774;28;20033;-83
2022/06/20 02:18:17;;;;;;;0.57;0.55;;;;;;;;;;2091513;28;20064;-82
2022/06/20 02:19:38;;;;;;;3.25;0.50;;;;;;;;;;2092875;28;20080;-82
2022/06/20 02:21:00;;;;;;;1.88;0.70;;;;;;;;;;2091409;28;20045;-83
2022/06/20 02:22:21;;;;;;;5.63;0.85;;;;;;;;;;2092120;28;20025;-82
2022/06/20 02:23:41;;;;;;;2.38;0.70;;;;;;;;;;2100313;28;20488;-83
2022/06/20 02:25:06;;;;;;;1.70;0.88;;;;;;;;;;2094838;28;20036;-83
2022/06/20 02:26:25;;;;;;;1.27;0.80;;;;;;;;;;2091738;28;20024;-83
2022/06/20 02:27:53;;;;;;;2.22;0.82;;;;;;;;;;2092499;28;20029;-83
2022/06/20 02:29:20;;;;;;;1.60;0.82;;;;;;;;;;2090202;28;20028;-83
2022/06/20 02:30:39;;;;;;;3.25;0.80;;;;;;;;;;2091957;28;20021;-80
2022/06/20 02:32:30;;;;;;;1.95;0.93;;;;;;;;;;2091665;28;20088;-83
2022/06/20 02:33:50;;;;;;;4.30;0.80;;;;;;;;;;2068275;28;20120;-83
2022/06/20 02:35:12;;;;;;;2.15;1.13;;;;;;;;;;2091594;28;20041;-79
2022/06/20 02:36:31;;;;;;;1.83;0.82;;;;;;;;;;2090622;28;20505;-83
2022/06/20 02:37:50;;;;;;;2.22;0.75;;;;;;;;;;2092618;28;20586;-82
2022/06/20 02:39:09;;;;;;;1.77;0.65;;;;;;;;;;2091860;28;20033;-83
2022/06/20 02:40:30;;;;;;;3.13;0.80;;;;;;;;;;2090264;28;20040;-82
2022/06/20 02:41:52;;;;;;;1.55;0.80;;;;;;;;;;2087671;28;20163;-81
2022/06/20 02:43:13;;;;;;;2.42;0.93;;;;;;;;;;2091319;28;21184;-81
2022/06/20 02:44:32;;;;;;;1.60;0.57;;;;;;;;;;2091486;28;20028;-82
2022/06/20 02:45:52;;;;;;;1.45;0.60;;;;;;;;;;2091625;28;20394;-82
2022/06/20 02:47:13;;;;;;;0.73;0.50;;;;;;;;;;2091988;28;20040;-81
2022/06/20 02:48:33;;;;;;;1.92;0.90;;;;;;;;;;2091864;28;20041;-82
2022/06/20 02:49:53;;;;;;;2.55;0.45;;;;;;;;;;2093861;28;20033;-82
2022/06/20 02:51:15;;;;;;;0.63;0.40;;;;;;;;;;2093468;28;20437;-82
2022/06/20 02:52:38;;;;;;;1.33;0.60;;;;;;;;;;2091589;28;20021;-81
2022/06/20 02:53:59;;;;;;;1.65;0.80;;;;;;;;;;2092192;28;20044;-82
2022/06/20 02:55:18;;;;;;;1.73;0.60;;;;;;;;;;2091549;28;20025;-82
2022/06/20 02:56:42;;;;;;;1.35;0.50;;;;;;;;;;2092394;28;20077;-81
2022/06/20 02:58:05;;;;;;;1.45;0.70;;;;;;;;;;2092841;28;20029;-82
2022/06/20 02:59:26;;;;;;;4.35;0.75;;;;;;;;;;2091736;28;20029;-82
2022/06/20 03:00:49;;;;;;;0.95;0.60;;;;;;;;;;2091878;28;20108;-82
2022/06/20 03:02:10;;;;;;;1.75;0.98;;;;;;;;;;2090308;28;20032;-81
2022/06/20 03:03:31;;;;;;;1.83;0.60;;;;;;;;;;2092481;28;20055;-82
2022/06/20 03:04:50;;;;;;;2.50;0.75;;;;;;;;;;2091048;28;20025;-81
2022/06/20 03:06:11;;;;;;;1.35;0.70;;;;;;;;;;2091363;28;20036;-81
2022/06/20 03:07:36;;;;;;;3.95;0.70;;;;;;;;;;2088064;28;20025;-81
2022/06/20 03:08:56;;;;;;;1.60;0.68;;;;;;;;;;2091161;28;20040;-82
2022/06/20 03:10:26;;;;;;;1.10;0.65;;;;;;;;;;2090684;28;20111;-82
2022/06/20 03:11:45;;;;;;;1.52;0.55;;;;;;;;;;2092085;28;20425;-81
2022/06/20 03:13:04;;;;;;;3.15;0.90;;;;;;;;;;2093332;28;20029;-78
2022/06/20 03:14:31;;;;;;;1.25;0.50;;;;;;;;;;2092063;28;20494;-81
2022/06/20 03:15:52;;;;;;;3.80;0.90;;;;;;;;;;2091141;28;20115;-81
2022/06/20 03:17:12;;;;;;;1.85;0.52;;;;;;;;;;2090436;28;20029;-80
2022/06/20 03:18:39;;;;;;;3.05;1.00;;;;;;;;;;2092719;28;20470;-81
2022/06/20 03:20:02;;;;;;;1.83;0.70;;;;;;;;;;2093223;28;20037;-82
2022/06/20 03:21:23;;;;;;;1.70;0.60;;;;;;;;;;2092025;28;20029;-79
2022/06/20 03:22:53;;;;;;;1.85;0.80;;;;;;;;;;2087583;28;20033;-81
2022/06/20 03:24:15;;;;;;;1.00;0.70;;;;;;;;;;2091822;28;20032;-82
2022/06/20 03:25:35;;;;;;;1.13;0.70;;;;;;;;;;2092244;28;20477;-81
2022/06/20 03:26:54;;;;;;;2.67;1.02;;;;;;;;;;2092778;28;20402;-82
2022/06/20 03:28:14;;;;;;;1.10;0.80;;;;;;;;;;2092026;28;20033;-82
2022/06/20 03:29:35;;;;;;;2.85;0.80;;;;;;;;;;2092415;28;20024;-81
2022/06/20 03:30:57;;;;;;;2.58;0.80;;;;;;;;;;2092110;28;20037;-81
2022/06/20 03:32:16;;;;;;;0.80;0.70;;;;;;;;;;2100509;28;20159;-81
2022/06/20 03:33:35;;;;;;;1.95;1.08;;;;;;;;;;2092898;28;20037;-81
2022/06/20 03:34:54;;;;;;;1.08;0.60;;;;;;;;;;2091979;28;20024;-81
2022/06/20 03:36:31;;;;;;;0.85;0.68;;;;;;;;;;2091525;28;20116;-83
2022/06/20 03:37:50;;;;;;;4.72;1.15;;;;;;;;;;2090147;28;20522;-80
2022/06/20 03:39:09;;;;;;;1.85;0.80;;;;;;;;;;2093092;28;20028;-82
2022/06/20 03:40:28;;;;;;;2.05;0.93;;;;;;;;;;2087981;28;20515;-81
2022/06/20 03:41:48;;;;;;;2.20;0.70;;;;;;;;;;2090617;28;20477;-76
2022/06/20 03:43:09;;;;;;;1.95;1.05;;;;;;;;;;2091588;28;20485;-82
2022/06/20 03:44:32;;;;;;;1.65;0.75;;;;;;;;;;2092618;28;20029;-81
2022/06/20 03:46:17;;;;;;;2.40;0.85;;;;;;;;;;2092947;28;20021;-80
2022/06/20 03:47:51;;;;;;;1.65;0.90;;;;;;;;;;2092246;28;20025;-81
2022/06/20 03:49:14;;;;;;;1.67;1.00;;;;;;;;;;2092599;28;20545;-81
2022/06/20 03:50:35;;;;;;;1.85;1.02;;;;;;;;;;2091896;28;20040;-81
2022/06/20 03:51:57;;;;;;;2.45;0.95;;;;;;;;;;2090874;28;20560;-81
2022/06/20 03:53:26;;;;;;;4.30;1.15;;;;;;;;;;2088067;28;20487;-81
2022/06/20 03:54:51;;;;;;;0.82;0.73;;;;;;;;;;2091472;28;20033;-76
2022/06/20 03:56:15;;;;;;;2.85;0.82;;;;;;;;;;2091754;28;20024;-80
2022/06/20 03:57:43;;;;;;;0.85;0.80;;;;;;;;;;2092034;28;20013;-80
2022/06/20 03:59:02;;;;;;;1.33;0.93;;;;;;;;;;2092708;28;20033;-82
2022/06/20 04:00:40;;;;;;;1.33;1.13;;;;;;;;;;2090303;28;21498;-81
2022/06/20 04:02:02;;;;;;;2.80;0.98;;;;;;;;;;2097807;28;20033;-80
2022/06/20 04:03:40;;;;;;;1.05;0.88;;;;;;;;;;2094641;28;20447;-81
2022/06/20 04:05:06;;;;;;;1.63;0.77;;;;;;;;;;2091544;28;20498;-81
2022/06/20 04:06:55;;;;;;;2.97;1.35;;;;;;;;;;2090335;28;20062;-80
2022/06/20 04:11:57;;;;;;;1.05;0.95;;;;;;;;;;2092661;28;20429;-81
2022/06/20 04:13:23;;;;;;;2.13;1.10;;;;;;;;;;2090567;28;20033;-81
2022/06/20 04:14:55;;;;;;;2.42;1.20;;;;;;;;;;2091301;28;20045;-81
2022/06/20 04:16:24;;;;;;;4.05;0.80;;;;;;;;;;2091876;28;20033;-80
2022/06/20 04:19:30;;;;;;;2.67;1.13;;;;;;;;;;2092156;28;20546;-81
2022/06/20 04:20:51;;;;;;;1.33;1.00;;;;;;;;;;2091591;28;20033;-82
2022/06/20 04:22:12;;;;;;;0.88;0.85;;;;;;;;;;2088093;28;20033;-81
2022/06/20 04:23:44;;;;;;;1.08;0.88;;;;;;;;;;2088947;28;20393;-81
2022/06/20 04:25:12;;;;;;;4.05;0.90;;;;;;;;;;2091341;28;20033;-81
2022/06/20 04:26:35;;;;;;;4.03;1.10;;;;;;;;;;2093834;28;20068;-79
2022/06/20 04:27:58;;;;;;;2.38;1.02;;;;;;;;;;2092220;28;20475;-80
2022/06/20 04:29:22;;;;;;;0.93;0.77;;;;;;;;;;2094635;28;20060;-81
2022/06/20 04:31:00;;;;;;;1.30;0.65;;;;;;;;;;2090155;28;20036;-82
2022/06/20 04:32:30;;;;;;;0.73;0.73;;;;;;;;;;2093649;28;20044;-82
2022/06/20 04:34:09;;;;;;;2.63;1.08;;;;;;;;;;2094834;28;20037;-82
2022/06/20 04:35:32;;;;;;;1.90;1.27;;;;;;;;;;2095722;28;20444;-82
2022/06/20 04:37:17;;;;;;;1.38;1.25;;;;;;;;;;2090650;28;20104;-82
2022/06/20 04:38:41;;;;;;;1.58;1.30;;;;;;;;;;2084189;28;20029;-80
2022/06/20 04:40:04;;;;;;;1.13;1.02;;;;;;;;;;2092725;28;20021;-79
2022/06/20 04:41:34;;;;;;;1.52;1.00;;;;;;;;;;2090947;28;20032;-81
2022/06/20 04:42:56;;;;;;;1.17;1.08;;;;;;;;;;2090629;28;20028;-81
2022/06/20 04:44:18;;;;;;;0.98;0.90;;;;;;;;;;2089859;28;20684;-82
2022/06/20 04:45:43;;;;;;;4.72;1.40;;;;;;;;;;2092909;28;20481;-81
2022/06/20 04:47:02;;;;;;;1.92;1.30;;;;;;;;;;2093694;28;20441;-81
2022/06/20 04:48:23;;;;;;;2.40;1.10;;;;;;;;;;2088653;28;20029;-78
2022/06/20 04:49:42;;;;;;;2.45;0.98;;;;;;;;;;2092603;28;20024;-81
2022/06/20 04:51:04;;;;;;;1.25;1.10;;;;;;;;;;2094208;28;20065;-82
2022/06/20 04:52:25;;;;;;;1.30;1.20;;;;;;;;;;2092875;28;20032;-81
2022/06/20 04:53:45;;;;;;;1.58;1.20;;;;;;;;;;2090559;28;20024;-84
2022/06/20 04:55:04;;;;;;;1.65;1.08;;;;;;;;;;2093123;28;20033;-78
2022/06/20 04:56:29;;;;;;;2.80;1.40;;;;;;;;;;2091492;28;20025;-79
2022/06/20 04:57:49;;;;;;;3.05;1.27;;;;;;;;;;2090452;28;20018;-82
2022/06/20 04:59:11;;;;;;;1.42;1.33;;;;;;;;;;2093655;28;20116;-80
2022/06/20 05:00:35;;;;;;;2.70;1.58;;;;;;;;;;2093108;28;20454;-82
2022/06/20 05:01:57;;;;;;;1.63;0.95;;;;;;;;;;2091140;28;20025;-81
2022/06/20 05:03:22;;;;;;;1.58;1.48;;;;;;;;;;2093091;28;20037;-86
2022/06/20 05:04:42;;;;;;;1.63;1.30;;;;;;;;;;2090899;28;20045;-81
2022/06/20 05:06:09;;;;;;;1.98;1.65;;;;;;;;;;2093788;28;20111;-85
2022/06/20 05:07:33;;;;;;;1.63;1.45;;;;;;;;;;2094441;28;20083;-78
2022/06/20 05:08:54;;;;;;;2.88;2.40;;;;;;;;;;2092291;28;20029;-81
2022/06/20 05:10:19;;;;;;;1.98;1.80;;;;;;;;;;2092458;28;20041;-83
2022/06/20 05:11:41;;;;;;;3.38;1.77;;;;;;;;;;2091959;28;20060;-81
2022/06/20 05:13:02;;;;;;;1.98;1.38;;;;;;;;;;2088699;28;20501;-81
2022/06/20 05:14:30;;;;;;;1.60;1.50;;;;;;;;;;2093012;28;20111;-82
2022/06/20 05:15:50;;;;;;;1.83;1.70;;;;;;;;;;2093075;28;20032;-83
2022/06/20 05:17:19;;;;;;;2.03;1.77;;;;;;;;;;2092288;28;20021;-80
2022/06/20 05:18:44;;;;;;;2.17;1.92;;;;;;;;;;2091906;28;20040;-83
2022/06/20 05:20:08;;;;;;;2.30;2.10;;;;;;;;;;2092607;28;20021;-81
2022/06/20 05:21:29;;;;;;;1.80;1.70;;;;;;;;;;2094997;28;20386;-82
2022/06/20 05:22:54;;;;;;;3.70;1.60;;;;;;;;;;2094211;28;20633;-81
2022/06/20 05:24:15;;;;;;;2.30;1.83;;;;;;;;;;2091695;28;20028;-82
2022/06/20 05:25:36;;;;;;;3.60;2.10;;;;;;;;;;2092271;28;20374;-81
2022/06/20 05:26:56;;;;;;;3.58;2.10;;;;;;;;;;2092739;28;20176;-83
2022/06/20 05:28:18;;;;;;;1.63;1.52;;;;;;;;;;2092588;28;20028;-83
2022/06/20 05:29:39;;;;;;;1.63;1.52;;;;;;;;;;2091692;28;20393;-81
2022/06/20 05:30:59;;;;;;;3.50;2.58;;;;;;;;;;2091721;28;20037;-83
2022/06/20 05:32:22;;;;;;;3.05;2.67;;;;;;;;;;2094254;28;20044;-83
2022/06/20 05:33:59;;;;;;;3.03;2.20;;;;;;;;;;2095759;28;20036;-83
2022/06/20 05:35:21;;;;;;;2.50;2.30;;;;;;;;;;2092391;28;20100;-80
2022/06/20 05:36:46;;;;;;;2.58;1.88;;;;;;;;;;2092245;28;20032;-82
2022/06/20 05:38:25;;;;;;;3.80;1.90;;;;;;;;;;2093208;28;20029;-81
2022/06/20 05:39:44;;;;;;;2.78;2.58;;;;;;;;;;2089450;28;20033;-81
2022/06/20 05:41:04;;;;;;;2.78;2.10;;;;;;;;;;2091276;28;20033;-84
2022/06/20 05:42:26;;;;;;;2.63;2.42;;;;;;;;;;2098062;28;20024;-82
2022/06/20 05:43:45;;;;;;;2.47;2.38;;;;;;;;;;2092612;28;20029;-81
2022/06/20 05:45:15;;;;;;;2.67;1.92;;;;;;;;;;2090772;28;20029;-79
2022/06/20 05:46:53;;;;;;;3.60;2.25;;;;;;;;;;2092987;28;20028;-79
2022/06/20 05:48:12;;;;;;;2.30;2.10;;;;;;;;;;2091888;28;20025;-81
2022/06/20 05:49:45;;;;;;;2.03;1.83;;;;;;;;;;2093130;28;20025;-81
2022/06/20 05:51:05;;;;;;;3.17;1.67;;;;;;;;;;2093142;28;20032;-82
2022/06/20 05:52:25;;;;;;;2.55;1.80;;;;;;;;;;2092272;28;20490;-83
2022/06/20 05:53:46;;;;;;;3.53;2.05;;;;;;;;;;2093387;28;20385;-86
2022/06/20 05:55:10;;;;;;;2.78;2.08;;;;;;;;;;2089613;28;20037;-79
2022/06/20 05:56:29;;;;;;;2.47;2.00;;;;;;;;;;2092158;28;20029;-80
2022/06/20 05:57:50;;;;;;;2.20;2.05;;;;;;;;;;2094424;28;20033;-81
2022/06/20 05:59:39;;;;;;;2.20;2.00;;;;;;;;;;2090729;28;20032;-82
2022/06/20 06:01:02;;;;;;;2.03;1.70;;;;;;;;;;2083787;28;20033;-82
2022/06/20 06:02:34;;;;;;;1.75;1.60;;;;;;;;;;2089663;28;20456;-79
2022/06/20 06:03:57;;;;;;;1.80;1.63;;;;;;;;;;2089824;28;20036;-80
2022/06/20 06:05:19;;;;;;;3.58;2.72;;;;;;;;;;2093390;28;20405;-81
2022/06/20 06:06:40;;;;;;;2.40;2.30;;;;;;;;;;2093415;28;20041;-82
2022/06/20 06:08:02;;;;;;;2.30;2.10;;;;;;;;;;2093389;28;20033;-81
2022/06/20 06:09:25;;;;;;;2.85;2.33;;;;;;;;;;2088316;28;20036;-81
2022/06/20 06:10:48;;;;;;;3.22;2.75;;;;;;;;;;2088087;28;20040;-82
2022/06/20 06:12:33;;;;;;;2.90;2.63;;;;;;;;;;2088213;28;20425;-82
2022/06/20 06:14:22;;;;;;;3.15;2.92;;;;;;;;;;2090831;28;20496;-82
2022/06/20 06:17:34;;;;;;;4.95;2.30;;;;;;;;;;2090456;28;20032;-78
2022/06/20 06:19:00;;;;;;;2.30;2.20;;;;;;;;;;2091346;28;20021;-81
2022/06/20 06:20:23;;;;;;;3.65;2.22;;;;;;;;;;2090851;28;20033;-81
2022/06/20 06:21:43;;;;;;;2.88;2.25;;;;;;;;;;2092492;28;20025;-82
2022/06/20 06:23:05;;;;;;;2.03;1.92;;;;;;;;;;2093167;28;20025;-81
2022/06/20 06:24:25;;;;;;;1.83;1.73;;;;;;;;;;2092967;28;20037;-82
2022/06/20 06:25:44;;;;;;;2.25;2.15;;;;;;;;;;2092284;28;20052;-81
2022/06/20 06:27:04;;;;;;;2.53;2.10;;;;;;;;;;2092053;28;20028;-84
2022/06/20 06:28:24;;;;;;;2.60;2.40;;;;;;;;;;2090606;28;20029;-82
2022/06/20 06:29:48;;;;;;;3.55;2.20;;;;;;;;;;2089140;28;20445;-83
2022/06/20 06:31:17;;;;;;;1.95;1.80;;;;;;;;;;2091742;28;20433;-81
2022/06/20 06:32:36;;;;;;;3.72;2.08;;;;;;;;;;2093700;28;20016;-83
2022/06/20 06:34:04;;;;;;;3.03;2.20;;;;;;;;;;2090275;28;20609;-84
2022/06/20 06:35:34;;;;;;;2.20;2.10;;;;;;;;;;2093011;28;20036;-80
2022/06/20 06:36:54;;;;;;;2.65;2.33;;;;;;;;;;2092046;28;20460;-86
2022/06/20 06:38:32;;;;;;;2.30;2.10;;;;;;;;;;2091974;28;20120;-84
2022/06/20 06:39:58;;;;;;;2.50;2.13;;;;;;;;;;2092119;28;20032;-82
2022/06/20 06:41:37;;;;;;;2.78;2.10;;;;;;;;;;2095530;28;20028;-80
2022/06/20 06:42:57;;;;;;;2.08;1.88;;;;;;;;;;2091989;28;20033;-82
2022/06/20 06:44:18;;;;;;;2.15;2.05;;;;;;;;;;2089380;28;20036;-81
2022/06/20 06:45:37;;;;;;;2.08;1.98;;;;;;;;;;2092008;28;20087;-80
2022/06/20 06:46:56;;;;;;;4.45;2.00;;;;;;;;;;2095867;28;20068;-81
2022/06/20 06:48:19;;;;;;;2.08;1.98;;;;;;;;;;2093418;28;20017;-82
2022/06/20 06:49:42;;;;;;;1.90;1.70;;;;;;;;;;2091272;28;20036;-83
2022/06/20 06:51:04;;;;;;;2.40;2.20;;;;;;;;;;2093171;28;20028;-79
2022/06/20 06:52:38;;;;;;;2.30;2.10;;;;;;;;;;2092828;28;20124;-80
2022/06/20 06:54:04;;;;;;;3.03;1.85;;;;;;;;;;2091445;28;20021;-80
2022/06/20 06:55:23;;;;;;;1.95;1.75;;;;;;;;;;2097549;28;20439;-81
2022/06/20 06:56:53;;;;;;;3.50;2.10;;;;;;;;;;2095304;28;20037;-81
2022/06/20 06:58:34;;;;;;;2.75;2.55;;;;;;;;;;2092999;28;20028;-81
2022/06/20 07:00:02;;;;;;;2.22;2.03;;;;;;;;;;2092584;28;20021;-81
2022/06/20 07:01:24;;;;;;;2.50;2.05;;;;;;;;;;2092080;28;20506;-82
2022/06/20 07:02:55;;;;;;;4.97;2.70;;;;;;;;;;2087102;28;20065;-81
2022/06/20 07:04:29;;;;;;;2.80;2.60;;;;;;;;;;2090112;28;20021;-81
2022/06/20 07:05:50;;;;;;;1.73;1.63;;;;;;;;;;2092150;28;20383;-86
2022/06/20 07:07:19;;;;;;;2.10;1.90;;;;;;;;;;2092697;28;20037;-83
2022/06/20 07:08:42;;;;;;;2.60;1.85;;;;;;;;;;2093274;28;20024;-81
2022/06/20 07:10:02;;;;;;;1.98;1.70;;;;;;;;;;2088943;28;20029;-82
2022/06/20 07:11:22;;;;;;;1.95;1.60;;;;;;;;;;2091693;28;20024;-83
2022/06/20 07:12:46;;;;;;;0.88;0.88;;;;;;;;;;2092743;28;20147;-84
2022/06/20 07:14:15;;;;;;;1.00;1.00;;;;;;;;;;2091888;28;20526;-83
2022/06/20 07:15:34;;;;;;;2.33;0.98;;;;;;;;;;2094357;28;20028;-82
2022/06/20 07:16:57;;;;;;;1.92;1.00;;;;;;;;;;2083825;28;20136;-81
2022/06/20 07:18:27;;;;;;;0.70;0.70;;;;;;;;;;2089833;28;20033;-82
2022/06/20 07:19:48;;;;;;;1.90;0.95;;;;;;;;;;2090088;28;20024;-82
2022/06/20 07:21:09;;;;;;;1.95;1.05;;;;;;;;;;2096372;28;20044;-84
2022/06/20 07:22:30;;;;;;;1.05;0.95;;;;;;;;;;2094173;28;20041;-78
2022/06/20 07:23:55;;;;;;;1.33;1.00;;;;;;;;;;2092997;28;20032;-82
2022/06/20 07:25:19;;;;;;;1.05;1.05;;;;;;;;;;2091924;28;20432;-82
2022/06/20 07:26:45;;;;;;;1.77;1.67;;;;;;;;;;2089271;28;20152;-81
2022/06/20 07:28:04;;;;;;;3.13;1.75;;;;;;;;;;2092624;28;20155;-82
2022/06/20 07:29:25;;;;;;;1.45;1.30;;;;;;;;;;2090860;28;20056;-82
2022/06/20 07:30:47;;;;;;;3.03;1.20;;;;;;;;;;2092604;28;20025;-82
2022/06/20 07:32:11;;;;;;;1.50;1.40;;;;;;;;;;2091499;28;20129;-82
2022/06/20 07:33:33;;;;;;;1.20;1.10;;;;;;;;;;2093640;28;20029;-82
2022/06/20 07:34:54;;;;;;;1.52;1.42;;;;;;;;;;2091430;28;20040;-83
2022/06/20 07:36:14;;;;;;;2.45;1.35;;;;;;;;;;2092760;28;20390;-83
2022/06/20 07:38:09;;;;;;;1.45;1.35;;;;;;;;;;2092778;28;20525;-83
2022/06/20 07:39:36;;;;;;;1.33;1.23;;;;;;;;;;2079983;28;20033;-81
2022/06/20 07:40:58;;;;;;;1.50;1.40;;;;;;;;;;2082118;28;20034;-84
2022/06/20 07:42:17;;;;;;;6.13;1.80;;;;;;;;;;2090785;28;20056;-84
2022/06/20 07:43:40;;;;;;;1.55;1.45;;;;;;;;;;2092606;28;20037;-84
2022/06/20 07:45:06;;;;;;;1.35;1.25;;;;;;;;;;2092090;28;20581;-88
2022/06/20 07:46:32;;;;;;;3.03;1.40;;;;;;;;;;2093205;28;20037;-87
2022/06/20 07:47:59;;;;;;;1.30;1.20;;;;;;;;;;2094157;28;20040;-87
2022/06/20 07:49:20;;;;;;;1.33;1.20;;;;;;;;;;2094293;28;20397;-86
2022/06/20 07:50:43;;;;;;;8.75;2.13;;;;;;;;;;2092851;28;20032;-88
2022/06/20 07:52:10;;;;;;;1.67;1.58;;;;;;;;;;2088782;28;20494;-80
2022/06/20 07:53:34;;;;;;;1.42;1.33;;;;;;;;;;2092299;28;20033;-82
2022/06/20 07:54:56;;;;;;;1.55;1.45;;;;;;;;;;2095452;28;20115;-80
2022/06/20 07:56:22;;;;;;;2.00;1.90;;;;;;;;;;2094114;28;20029;-81
2022/06/20 07:57:44;;;;;;;3.10;1.60;;;;;;;;;;2092724;28;20447;-82
2022/06/20 07:59:08;;;;;;;2.60;1.50;;;;;;;;;;2100495;28;20028;-83
2022/06/20 08:00:29;;;;;;;1.70;1.60;;;;;;;;;;2094589;28;20025;-83
2022/06/20 08:01:54;;;;;;;2.15;1.60;;;;;;;;;;2093959;28;20047;-80
2022/06/20 08:03:34;;;;;;;4.63;1.70;;;;;;;;;;2093495;28;20033;-79
2022/06/20 08:04:56;;;;;;;2.20;1.30;;;;;;;;;;2101938;28;20730;-79
2022/06/20 08:06:32;;;;;;;1.20;1.20;;;;;;;;;;2095531;28;20493;-80
2022/06/20 08:08:01;;;;;;;1.67;1.50;;;;;;;;;;2091637;28;20502;-80
2022/06/20 08:09:46;;;;;;;3.22;1.52;;;;;;;;;;2101554;28;20036;-81
2022/06/20 08:11:08;;;;;;;2.40;1.70;;;;;;;;;;2100587;28;20036;-80
2022/06/20 08:12:35;;;;;;;1.83;1.63;;;;;;;;;;2095629;28;20032;-81
2022/06/20 08:13:55;;;;;;;3.65;1.88;;;;;;;;;;2093440;28;20478;-81
2022/06/20 08:15:19;;;;;;;1.92;1.75;;;;;;;;;;2092174;28;20040;-80
2022/06/20 08:16:38;;;;;;;3.05;2.28;;;;;;;;;;2092667;28;20025;-80
2022/06/20 08:17:58;;;;;;;1.75;1.65;;;;;;;;;;2089177;28;20033;-80
2022/06/20 08:19:16;;;;;;;1.80;1.70;;;;;;;;;;2093938;28;20422;-81
2022/06/20 08:20:38;;;;;;;1.45;1.40;;;;;;;;;;2093327;28;20103;-81
2022/06/20 08:22:17;;;;;;;3.72;2.03;;;;;;;;;;2093533;28;20040;-80
2022/06/20 08:23:41;;;;;;;2.20;1.70;;;;;;;;;;2091513;28;20351;-81
2022/06/20 08:25:09;;;;;;;2.88;1.65;;;;;;;;;;2091028;28;20510;-81
2022/06/20 08:26:31;;;;;;;1.63;1.52;;;;;;;;;;2093471;28;20040;-82
2022/06/20 08:28:13;;;;;;;2.20;1.70;;;;;;;;;;2089606;28;20036;-80
2022/06/20 08:30:01;;;;;;;1.90;1.80;;;;;;;;;;2096098;28;20036;-78
2022/06/20 08:31:24;;;;;;;1.63;1.50;;;;;;;;;;2090489;28;20123;-81
2022/06/20 08:33:03;;;;;;;3.05;1.70;;;;;;;;;;2093045;28;20028;-83
2022/06/20 08:34:29;;;;;;;1.80;1.70;;;;;;;;;;2090349;28;20514;-82
2022/06/20 08:35:51;;;;;;;2.05;1.70;;;;;;;;;;2093202;28;20134;-82